Nearby METAR Reports

 

YCOM - Cooma Snowy Mtns, Australia
Distance from station: NE 158km
Updated: 28/07/2021 19:00
Mostly cloudy
Mostly cloudy
 Wind from NW
Wind: NW 24 km/h, Gust: 44 km/h
Temperature: 6°C
Wind Chill: 2°C
Dew Point: 2°C
Humidity: 76%
Barometer: 1002 hPa
Clouds: Mostly cloudy
Visibility: 10 km
Cloud details: Mostly cloudy 1311 m
Mostly cloudy 1554 m
2021/07/28 09:00 YCOM 280900Z AUTO 32013G24KT 9999 // BKN043 BKN051 06/02 Q1002
YMAY - Albury Airport, Australia
Distance from station: NNW 165km
Updated: 28/07/2021 20:00
Clear
Clear
 Wind from W
Wind: W 31 km/h
Temperature: 10°C
Wind Chill: 7°C
Dew Point: 6°C
Humidity: 76%
Barometer: 1007 hPa
Clouds: Clear
Visibility: 10 km
2021/07/28 10:00 YMAY 281000Z AUTO 28017KT 9999 // NCD 10/06 Q1007
 
YWGT - Wangaratta Airport, Australia
Distance from station: NW 172km
Updated: 28/07/2021 20:00
Clear
Clear
 Wind from WNW
Wind: WNW 24 km/h
Temperature: 9°C
Wind Chill: 6°C
Dew Point: 5°C
Humidity: 76%
Barometer: 1007 hPa
Clouds: Clear
Visibility: 10 km
2021/07/28 10:00 YWGT 281000Z AUTO 29013KT 9999 // NCD 09/05 Q1007
YMER - Merimbula Airport, Australia
Distance from station: ENE 192km
Updated: 28/07/2021 20:00
Clear
Clear
 Wind from calm
Wind: Calm
Temperature: 9°C
Dew Point: 6°C
Humidity: 82%
Barometer: 1001 hPa
Clouds: Clear
Visibility: 10 km
2021/07/28 10:00 YMER 281000Z AUTO 00000KT 9999 // NCD 09/06 Q1001